オクラホマシティ の空港の天気 - METARとTAF

オクラホマシティ空港 ( KOKC / OKC ) - アメリカ オクラホマ州オクラホマシティ
飛行場実況気象(Metar)
観測時間11/30 13:52 CST (11/30 19:52 UTC)
風向・風速西北西 3m/s
視程10km以上
天気現象
なし
気温6.7℃
湿度28%
気圧1027hPa
METARKOKC 301952Z 29006KT 10SM CLR 07/M11 A3031 RMK AO2 SLP270 T00671106
過去の天気等 Google飛行場航空写真 Wunderground天気予報

過去48時間のMETAR

飛行場予報(TAF)
発表時間: 11/30 11:24 CST (11/30 17:24 UTC)
予報対象時間: 30日12時 CST ~ 1日12時 CST
風向・風速西 5m/s
視程10km以上
なし
30日17時 CST から
風向・風速南南西 5m/s
視程10km以上
なし
1日8時 CST から
風向・風速南 7m/s 瞬間風速 11m/s
視程10km以上
なし
KOKC 301724Z 3018/0118 26010KT P6SM SKC
FM302300 20009KT P6SM SKC
FM011400 18014G22KT P6SM SKC